createdAt,value
2023-02-09T08:59:54.814Z,-5.01
2023-02-09T09:02:59.001Z,-4.98
2023-02-09T09:05:36.182Z,-4.92
2023-02-09T09:08:07.174Z,-4.87
2023-02-09T09:10:46.141Z,-4.88
2023-02-09T09:13:21.071Z,-4.88
2023-02-09T09:16:00.340Z,-4.82
2023-02-09T09:18:34.742Z,-4.28
2023-02-09T09:21:17.660Z,-3.45
2023-02-09T09:24:09.166Z,-2.36
2023-02-09T09:26:39.793Z,-1.48
2023-02-09T09:29:11.028Z,-0.69
2023-02-09T09:32:31.395Z,0.01
2023-02-09T09:35:46.734Z,1.18
2023-02-09T09:38:39.098Z,1.94
2023-02-09T09:41:29.319Z,2.83
2023-02-09T09:59:47.511Z,5.49
2023-02-09T10:06:41.995Z,6.62
2023-02-09T10:40:20.128Z,7.43
2023-02-09T10:43:56.819Z,7.05
2023-02-09T10:52:30.086Z,6.91
2023-02-09T10:57:25.648Z,6.58
2023-02-09T11:00:01.818Z,6.49
2023-02-09T11:03:20.028Z,6.52
2023-02-09T11:06:12.915Z,6.54
2023-02-09T11:09:36.492Z,6.64
2023-02-09T11:25:14.317Z,6.78
2023-02-09T11:32:32.163Z,4.76
2023-02-09T11:37:59.538Z,3.83
2023-02-09T11:41:08.241Z,3.33
2023-02-09T11:43:43.235Z,2.90
2023-02-09T11:46:32.313Z,2.68
2023-02-09T11:52:47.976Z,2.39
2023-02-09T11:55:45.934Z,2.18
2023-02-09T11:58:53.759Z,1.93
2023-02-09T12:26:19.614Z,1.85
2023-02-09T12:36:12.272Z,1.85
2023-02-09T12:39:07.876Z,1.68
2023-02-09T12:42:15.952Z,1.57
2023-02-09T13:02:58.714Z,0.91
2023-02-09T13:10:40.626Z,0.59
2023-02-09T13:13:34.094Z,0.39
2023-02-09T21:16:31.619Z,-1.39
2023-02-09T21:19:03.675Z,-1.42
2023-02-09T21:21:35.550Z,-1.42
2023-02-09T21:24:11.270Z,-1.44
2023-02-09T21:26:44.138Z,-1.45
2023-02-09T21:29:25.708Z,-1.48
2023-02-09T21:32:12.125Z,-1.52
2023-02-09T21:34:58.601Z,-1.59
2023-02-09T21:37:37.834Z,-1.62
2023-02-09T21:40:12.962Z,-1.63
2023-02-09T21:42:42.192Z,-1.64
2023-02-09T21:45:11.439Z,-1.65
2023-02-09T21:47:40.162Z,-1.65
2023-02-09T21:50:11.079Z,-1.64
2023-02-09T21:52:40.685Z,-1.63
2023-02-09T21:57:58.252Z,-1.64
2023-02-09T22:00:35.027Z,-1.64
2023-02-09T22:03:17.096Z,-1.64
2023-02-09T22:05:46.658Z,-1.65
2023-02-09T22:08:18.375Z,-1.68
2023-02-09T22:10:50.697Z,-1.69
2023-02-09T22:13:29.887Z,-1.74
2023-02-09T22:16:08.330Z,-1.72
2023-02-09T22:18:38.896Z,-1.70
2023-02-09T22:21:08.116Z,-1.69
2023-02-09T22:23:37.732Z,-1.67
2023-02-09T22:26:07.365Z,-1.66
2023-02-09T22:28:36.679Z,-1.69
2023-02-09T22:31:10.130Z,-1.74
2023-02-09T22:33:40.688Z,-1.75
2023-02-09T22:36:13.114Z,-1.74
2023-02-09T22:38:47.781Z,-1.72
2023-02-09T22:41:37.354Z,-1.64
2023-02-09T22:44:08.982Z,-1.58
2023-02-09T22:46:58.287Z,-1.50
2023-02-09T22:49:30.422Z,-1.39
2023-02-09T22:52:09.709Z,-1.28
2023-02-09T22:54:39.728Z,-1.20
2023-02-09T22:57:11.469Z,-1.17
2023-02-09T22:59:41.609Z,-1.21
2023-02-09T23:02:12.655Z,-1.22
2023-02-09T23:04:41.745Z,-1.23
2023-02-09T23:07:11.747Z,-1.27
2023-02-09T23:09:40.345Z,-1.33
2023-02-09T23:12:08.790Z,-1.37
2023-02-09T23:14:38.329Z,-1.39
2023-02-09T23:17:07.127Z,-1.41
2023-02-09T23:19:36.354Z,-1.45
2023-02-09T23:22:05.708Z,-1.49
2023-02-09T23:24:35.198Z,-1.53
2023-02-09T23:27:03.811Z,-1.55
2023-02-09T23:29:33.567Z,-1.57
2023-02-09T23:32:02.929Z,-1.60
2023-02-09T23:34:33.930Z,-1.63
2023-02-09T23:37:18.384Z,-1.68
2023-02-09T23:39:48.875Z,-1.72
2023-02-09T23:42:18.811Z,-1.72
2023-02-09T23:44:48.515Z,-1.72
2023-02-09T23:47:17.166Z,-1.71
2023-02-09T23:49:46.771Z,-1.71
2023-02-09T23:52:18.047Z,-1.74
2023-02-09T23:54:46.944Z,-1.76
2023-02-09T23:57:22.659Z,-1.79
2023-02-09T23:59:51.422Z,-1.81
